Time;durP1;ratioP1;P1;durP2;ratioP2;P2;SDS_P1;SDS_P2;PMS_P1;PMS_P2;Temp;Humidity;BMP_temperature;BMP_pressure;BME280_temperature;BME280_humidity;BME280_pressure;Samples;Min_cycle;Max_cycle;Signal;HPM_P1;HPM_P2
2024/01/09 00:00:04;;;;;;;;;;;;;;;-144.99;100.00;52627.47;5033819;28;19960;-68
2024/01/09 00:02:32;;;;;;;;;;;;;;;-144.99;100.00;52645.81;5033070;28;20310;-72
2024/01/09 00:04:59;;;;;;;;;;;;;;;-144.99;100.00;52623.38;5029799;28;19940;-71
2024/01/09 00:07:25;;;;;;;;;;;;;;;-144.99;100.00;52688.63;5029295;28;19976;-70
2024/01/09 00:09:52;;;;;;;;;;;;;;;-144.99;100.00;52635.63;5030007;28;20047;-70
2024/01/09 00:12:18;;;;;;;;;;;;;;;-144.99;100.00;52668.22;5029830;28;20355;-71
2024/01/09 00:14:45;;;;;;;;;;;;;;;-144.99;100.00;52647.84;5029306;28;19933;-69
2024/01/09 00:17:11;;;;;;;;;;;;;;;-144.99;100.00;52660.09;5028892;28;20027;-68
2024/01/09 00:19:39;;;;;;;;;;;;;;;-144.99;100.00;52623.38;5028095;28;19960;-70
2024/01/09 00:22:05;;;;;;;;;;;;;;;-144.99;100.00;52651.94;5035022;28;19964;-69
2024/01/09 00:24:32;;;;;;;;;;;;;;;-144.99;100.00;52639.69;5053558;28;19959;-70
2024/01/09 00:26:58;;;;;;;;;;;;;;;-144.99;100.00;52668.22;5045518;28;20321;-68
2024/01/09 00:29:25;;;;;;;;;;;;;;;-144.99;100.00;52631.53;5033780;28;20040;-69
2024/01/09 00:31:51;;;;;;;;;;;;;;;-144.99;100.00;52635.63;5032252;28;19929;-70
2024/01/09 00:34:18;;;;;;;;;;;;;;;-144.99;100.00;52645.81;5035600;28;20339;-69
2024/01/09 00:36:46;;;;;;;;;;;;;;;-144.99;100.00;52680.47;5030301;28;19956;-70
2024/01/09 00:39:13;;;;;;;;;;;;;;;-144.99;100.00;52670.28;5034565;28;19948;-69
2024/01/09 00:41:39;;;;;;;;;;;;;;;-144.99;100.00;52631.53;5040580;28;19933;-69
2024/01/09 00:44:06;;;;;;;;;;;;;;;-144.99;100.00;52656.00;5029555;28;20485;-69
2024/01/09 00:46:32;;;;;;;;;;;;;;;-144.99;100.00;52639.69;5030334;28;19979;-69
2024/01/09 00:48:59;;;;;;;;;;;;;;;-144.99;100.00;52645.81;5027943;28;19929;-82
2024/01/09 00:51:25;;;;;;;;;;;;;;;-144.99;100.00;52643.78;5029055;28;20024;-78
2024/01/09 00:53:54;;;;;;;;;;;;;;;-144.99;100.00;52647.84;5028905;28;19968;-77
2024/01/09 00:56:21;;;;;;;;;;;;;;;-144.99;100.00;52647.84;5034416;28;20024;-74
2024/01/09 00:58:47;;;;;;;;;;;;;;;-144.99;100.00;52605.03;5031081;28;20002;-80
2024/01/09 01:01:14;;;;;;;;;;;;;;;-144.99;100.00;52615.25;5033471;28;19937;-70
2024/01/09 01:03:41;;;;;;;;;;;;;;;-144.99;100.00;52651.94;5032185;28;20382;-70
2024/01/09 01:06:08;;;;;;;;;;;;;;;-144.99;100.00;52674.34;5046979;28;19952;-76
2024/01/09 01:08:35;;;;;;;;;;;;;;;-144.99;100.00;52619.31;5045527;28;19979;-73
2024/01/09 01:11:03;;;;;;;;;;;;;;;-144.99;100.00;52643.78;5028037;28;19925;-72
2024/01/09 01:13:30;;;;;;;;;;;;;;;-144.99;100.00;52631.53;5034662;28;20043;-72
2024/01/09 01:15:56;;;;;;;;;;;;;;;-144.99;100.00;52651.94;5028052;28;19936;-71
2024/01/09 01:18:22;;;;;;;;;;;;;;;-144.99;100.00;52639.69;5028539;28;19968;-71
2024/01/09 01:20:49;;;;;;;;;;;;;;;-144.99;100.00;52668.22;5026875;28;19960;-71
2024/01/09 01:23:16;;;;;;;;;;;;;;;-144.99;100.00;52623.38;5045362;28;19925;-71
2024/01/09 01:25:42;;;;;;;;;;;;;;;-144.99;100.00;52643.78;5034933;28;19978;-71
2024/01/09 01:28:10;;;;;;;;;;;;;;;-144.99;100.00;52590.78;5028459;28;19996;-71
2024/01/09 01:30:36;;;;;;;;;;;;;;;-144.99;100.00;52649.88;5026055;28;20410;-72
2024/01/09 01:33:03;;;;;;;;;;;;;;;-144.99;100.00;52621.34;5026799;28;20335;-71
2024/01/09 01:35:29;;;;;;;;;;;;;;;-144.99;100.00;52656.00;5028427;28;19933;-71
2024/01/09 01:37:56;;;;;;;;;;;;;;;-144.99;100.00;52629.50;5028620;28;20410;-70
2024/01/09 01:40:22;;;;;;;;;;;;;;;-144.99;100.00;52676.38;5027289;28;19965;-72
2024/01/09 01:42:49;;;;;;;;;;;;;;;-144.99;100.00;52643.78;5026675;28;20024;-71
2024/01/09 01:45:17;;;;;;;;;;;;;;;-144.99;100.00;52615.25;5028098;28;19964;-71
2024/01/09 01:47:45;;;;;;;;;;;;;;;-144.99;100.00;52631.53;5037280;28;19925;-69
2024/01/09 01:50:11;;;;;;;;;;;;;;;-144.99;100.00;52664.16;5044422;28;19983;-71
2024/01/09 01:52:39;;;;;;;;;;;;;;;-144.99;100.00;52631.53;5025458;28;19991;-66
2024/01/09 01:55:06;;;;;;;;;;;;;;;-144.99;100.00;52639.69;5027841;28;19988;-67
2024/01/09 01:57:33;;;;;;;;;;;;;;;-144.99;100.00;52651.94;5028876;28;20028;-65
2024/01/09 01:59:59;;;;;;;;;;;;;;;-144.99;100.00;52631.53;5031611;28;19987;-65
2024/01/09 02:02:27;;;;;;;;;;;;;;;-144.99;100.00;52692.69;5030384;28;19928;-66
2024/01/09 02:04:54;;;;;;;;;;;;;;;-144.99;100.00;52684.53;5029512;28;19929;-65
2024/01/09 02:07:24;;;;;;;;;;;;;;;-144.99;100.00;52619.31;5028525;28;19939;-67
2024/01/09 02:09:51;;;;;;;;;;;;;;;-144.99;100.00;52664.16;5031269;28;20025;-65
2024/01/09 02:12:18;;;;;;;;;;;;;;;-144.99;100.00;52680.47;5031095;28;19976;-64
2024/01/09 02:14:44;;;;;;;;;;;;;;;-144.99;100.00;52668.22;5032684;28;19964;-64
2024/01/09 02:17:11;;;;;;;;;;;;;;;-144.99;100.00;52623.38;5033561;28;19933;-67
2024/01/09 02:19:39;;;;;;;;;;;;;;;-144.99;100.00;52631.53;5032238;28;19952;-67
2024/01/09 02:22:05;;;;;;;;;;;;;;;-144.99;100.00;52656.00;5032163;28;19979;-65
2024/01/09 02:24:32;;;;;;;;;;;;;;;-144.99;100.00;52643.78;5033599;28;19976;-68
2024/01/09 02:27:01;;;;;;;;;;;;;;;-144.99;100.00;52633.59;5033176;28;19976;-66
2024/01/09 02:29:29;;;;;;;;;;;;;;;-144.99;100.00;52623.38;5037848;28;20001;-65
2024/01/09 02:31:57;;;;;;;;;;;;;;;-144.99;100.00;52643.78;5031969;28;20529;-67
2024/01/09 02:34:24;;;;;;;;;;;;;;;-144.99;100.00;52635.63;5033154;28;19932;-66
2024/01/09 02:36:51;;;;;;;;;;;;;;;-144.99;100.00;52662.13;5031749;28;19998;-66
2024/01/09 02:39:17;;;;;;;;;;;;;;;-144.99;100.00;52672.31;5048397;28;20363;-66
2024/01/09 02:41:45;;;;;;;;;;;;;;;-144.99;100.00;52641.72;5030739;28;20038;-65
2024/01/09 02:44:12;;;;;;;;;;;;;;;-144.99;100.00;52639.69;5032302;28;19948;-65
2024/01/09 02:46:38;;;;;;;;;;;;;;;-144.99;100.00;52607.09;5033879;28;19995;-66
2024/01/09 02:49:06;;;;;;;;;;;;;;;-144.99;100.00;52670.28;5041798;28;20351;-65
2024/01/09 02:51:33;;;;;;;;;;;;;;;-144.99;100.00;52631.53;5038880;28;20028;-66
2024/01/09 02:53:59;;;;;;;;;;;;;;;-144.99;100.00;52639.69;5035378;28;19991;-64
2024/01/09 02:56:27;;;;;;;;;;;;;;;-144.99;100.00;52647.84;5043123;28;20265;-66
2024/01/09 02:58:53;;;;;;;;;;;;;;;-144.99;100.00;52643.78;5035349;28;20408;-65
2024/01/09 03:01:20;;;;;;;;;;;;;;;-144.99;100.00;52635.63;5035003;28;20016;-67
2024/01/09 03:03:46;;;;;;;;;;;;;;;-144.99;100.00;52637.66;5031973;28;20367;-67
2024/01/09 03:06:14;;;;;;;;;;;;;;;-144.99;100.00;52660.09;5037769;28;19925;-67
2024/01/09 03:08:40;;;;;;;;;;;;;;;-144.99;100.00;52653.97;5035890;28;19956;-66
2024/01/09 03:11:07;;;;;;;;;;;;;;;-144.99;100.00;52647.84;5040256;28;19967;-69
2024/01/09 03:13:33;;;;;;;;;;;;;;;-144.99;100.00;52662.13;5029432;28;20016;-68
2024/01/09 03:16:00;;;;;;;;;;;;;;;-144.99;100.00;52611.16;5034372;28;19987;-69
2024/01/09 03:18:26;;;;;;;;;;;;;;;-144.99;100.00;52609.13;5029818;28;19929;-68
2024/01/09 03:20:53;;;;;;;;;;;;;;;-144.99;100.00;52639.69;5036717;28;19929;-65
2024/01/09 03:23:20;;;;;;;;;;;;;;;-144.99;100.00;52613.19;5028479;28;19952;-67
2024/01/09 03:25:47;;;;;;;;;;;;;;;-144.99;100.00;52656.00;5038640;28;19939;-68
2024/01/09 03:28:13;;;;;;;;;;;;;;;-144.99;100.00;52631.53;5032394;28;19975;-67
2024/01/09 03:30:40;;;;;;;;;;;;;;;-144.99;100.00;52639.69;5040706;28;19983;-68
2024/01/09 03:33:06;;;;;;;;;;;;;;;-144.99;100.00;52643.78;5030192;28;20406;-69
2024/01/09 03:35:33;;;;;;;;;;;;;;;-144.99;100.00;52633.59;5026863;28;19929;-67
2024/01/09 03:37:59;;;;;;;;;;;;;;;-144.99;100.00;52631.53;5036115;28;19931;-68
2024/01/09 03:40:27;;;;;;;;;;;;;;;-144.99;100.00;52668.22;5037040;28;19952;-67
2024/01/09 03:42:54;;;;;;;;;;;;;;;-144.99;100.00;52664.16;5035281;28;19933;-67
2024/01/09 03:45:20;;;;;;;;;;;;;;;-144.99;100.00;52627.47;5029306;28;19963;-66
2024/01/09 03:47:47;;;;;;;;;;;;;;;-144.99;100.00;52631.53;5032746;28;20364;-67
2024/01/09 03:50:13;;;;;;;;;;;;;;;-144.99;100.00;52639.69;5047153;28;19929;-68
2024/01/09 03:52:40;;;;;;;;;;;;;;;-144.99;100.00;52664.16;5050364;28;19925;-70
2024/01/09 03:55:06;;;;;;;;;;;;;;;-144.99;100.00;52664.16;5029984;28;20378;-72
2024/01/09 03:57:34;;;;;;;;;;;;;;;-144.99;100.00;52656.00;5036649;28;19964;-68
2024/01/09 04:00:01;;;;;;;;;;;;;;;-144.99;100.00;52639.69;5034933;28;19925;-66
2024/01/09 04:02:27;;;;;;;;;;;;;;;-144.99;100.00;52613.19;5039153;28;19929;-68
2024/01/09 04:04:54;;;;;;;;;;;;;;;-144.99;100.00;52623.38;5035340;28;20020;-68
2024/01/09 04:07:20;;;;;;;;;;;;;;;-144.99;100.00;52647.84;5031790;28;20349;-68
2024/01/09 04:09:47;;;;;;;;;;;;;;;-144.99;100.00;52664.16;5039126;28;19963;-68
2024/01/09 04:12:13;;;;;;;;;;;;;;;-144.99;100.00;52639.69;5034210;28;20027;-68
2024/01/09 04:14:41;;;;;;;;;;;;;;;-144.99;100.00;52621.34;5032969;28;20032;-68
2024/01/09 04:17:07;;;;;;;;;;;;;;;-144.99;100.00;52658.03;5031260;28;20567;-67
2024/01/09 04:19:37;;;;;;;;;;;;;;;-144.99;100.00;52639.69;5031608;28;19968;-67
2024/01/09 04:22:04;;;;;;;;;;;;;;;-144.99;100.00;52631.53;5025989;28;19986;-70
2024/01/09 04:24:30;;;;;;;;;;;;;;;-144.99;100.00;52639.69;5032255;28;20388;-71
2024/01/09 04:26:57;;;;;;;;;;;;;;;-144.99;100.00;52643.78;5031651;28;19933;-71
2024/01/09 04:29:23;;;;;;;;;;;;;;;-144.99;100.00;52668.22;5027742;28;20010;-71
2024/01/09 04:31:51;;;;;;;;;;;;;;;-144.99;100.00;52603.00;5039929;28;20370;-71
2024/01/09 04:34:18;;;;;;;;;;;;;;;-144.99;100.00;52633.59;5044928;28;20429;-71
2024/01/09 04:36:44;;;;;;;;;;;;;;;-144.99;100.00;52643.78;5030313;28;20232;-71
2024/01/09 04:39:10;;;;;;;;;;;;;;;-144.99;100.00;52615.25;5025948;28;19925;-69
2024/01/09 04:41:37;;;;;;;;;;;;;;;-144.99;100.00;52656.00;5028314;28;20012;-69
2024/01/09 04:44:03;;;;;;;;;;;;;;;-144.99;100.00;52607.09;5028843;28;19968;-68
2024/01/09 04:46:30;;;;;;;;;;;;;;;-144.99;100.00;52603.00;5028490;28;20283;-69
2024/01/09 04:48:58;;;;;;;;;;;;;;;-144.99;100.00;52615.25;5026564;28;19944;-70
2024/01/09 04:51:24;;;;;;;;;;;;;;;-144.99;100.00;52676.38;5028215;28;20024;-69
2024/01/09 04:53:51;;;;;;;;;;;;;;;-144.99;100.00;52629.50;5028114;28;20031;-69
2024/01/09 04:56:18;;;;;;;;;;;;;;;-144.99;100.00;52668.22;5028746;28;19991;-70
2024/01/09 04:58:44;;;;;;;;;;;;;;;-144.99;100.00;52639.69;5028114;28;19972;-69
2024/01/09 05:01:11;;;;;;;;;;;;;;;-144.99;100.00;52627.47;5029552;28;19925;-71
2024/01/09 05:03:38;;;;;;;;;;;;;;;-144.99;100.00;52684.53;5028669;28;19975;-64
2024/01/09 05:06:06;;;;;;;;;;;;;;;-144.99;100.00;52676.38;5028134;28;20387;-64
2024/01/09 05:08:34;;;;;;;;;;;;;;;-144.99;100.00;52647.84;5027995;28;20329;-65
2024/01/09 05:11:01;;;;;;;;;;;;;;;-144.99;100.00;52643.78;5025419;28;20519;-65
2024/01/09 05:13:28;;;;;;;;;;;;;;;-144.99;100.00;52641.72;5028104;28;19979;-65
2024/01/09 05:15:56;;;;;;;;;;;;;;;-144.99;100.00;52625.44;5027098;28;19925;-66
2024/01/09 05:18:22;;;;;;;;;;;;;;;-144.99;100.00;52656.00;5025130;28;19932;-65
2024/01/09 05:20:49;;;;;;;;;;;;;;;-144.99;100.00;52668.22;5026672;28;19941;-68
2024/01/09 05:23:17;;;;;;;;;;;;;;;-144.99;100.00;52631.53;5027109;28;20286;-66
2024/01/09 05:25:43;;;;;;;;;;;;;;;-144.99;100.00;52639.69;5028056;28;19964;-65
2024/01/09 05:28:10;;;;;;;;;;;;;;;-144.99;100.00;52651.94;5027910;28;20399;-70
2024/01/09 05:30:36;;;;;;;;;;;;;;;-144.99;100.00;52635.63;5027801;28;19987;-70
2024/01/09 05:33:03;;;;;;;;;;;;;;;-144.99;100.00;52615.25;5023018;28;20209;-70
2024/01/09 05:35:30;;;;;;;;;;;;;;;-144.99;100.00;52631.53;5028150;28;19925;-72
2024/01/09 05:37:56;;;;;;;;;;;;;;;-144.99;100.00;52586.69;5027960;28;19929;-71
2024/01/09 05:40:24;;;;;;;;;;;;;;;-144.99;100.00;52643.78;5027597;28;20461;-71
2024/01/09 05:42:51;;;;;;;;;;;;;;;-144.99;100.00;52631.53;5026132;28;19932;-73
2024/01/09 05:45:17;;;;;;;;;;;;;;;-144.99;100.00;52660.09;5027814;28;19936;-71
2024/01/09 05:47:44;;;;;;;;;;;;;;;-144.99;100.00;52656.00;5044131;28;19929;-71
2024/01/09 05:50:10;;;;;;;;;;;;;;;-144.99;100.00;52623.38;5032683;28;20015;-70
2024/01/09 05:52:38;;;;;;;;;;;;;;;-144.99;100.00;52668.22;5027406;28;19937;-75
2024/01/09 05:55:05;;;;;;;;;;;;;;;-144.99;100.00;52627.47;5026582;28;20239;-72
2024/01/09 05:57:32;;;;;;;;;;;;;;;-144.99;100.00;52639.69;5028064;28;20008;-71
2024/01/09 05:59:59;;;;;;;;;;;;;;;-144.99;100.00;52647.84;5027583;28;19979;-70
2024/01/09 06:02:26;;;;;;;;;;;;;;;-144.99;100.00;52613.19;5030287;28;19925;-72
2024/01/09 06:04:53;;;;;;;;;;;;;;;-144.99;100.00;52635.63;5033485;28;20351;-74
2024/01/09 06:07:19;;;;;;;;;;;;;;;-144.99;100.00;52627.47;5028245;28;20367;-69
2024/01/09 06:09:46;;;;;;;;;;;;;;;-144.99;100.00;52619.31;5027981;28;20059;-72
2024/01/09 06:12:12;;;;;;;;;;;;;;;-144.99;100.00;52668.22;5030997;28;20045;-71
2024/01/09 06:14:40;;;;;;;;;;;;;;;-144.99;100.00;52592.81;5030013;28;19929;-68
2024/01/09 06:17:07;;;;;;;;;;;;;;;-144.99;100.00;52643.78;5029391;28;19987;-72
2024/01/09 06:19:33;;;;;;;;;;;;;;;-144.99;100.00;52627.47;5030499;28;19965;-72
2024/01/09 06:22:00;;;;;;;;;;;;;;;-144.99;100.00;52627.47;5034001;28;19933;-71
2024/01/09 06:24:26;;;;;;;;;;;;;;;-144.99;100.00;52647.84;5034299;28;20000;-72
2024/01/09 06:26:53;;;;;;;;;;;;;;;-144.99;100.00;52702.88;5033639;28;19968;-72
2024/01/09 06:29:19;;;;;;;;;;;;;;;-144.99;100.00;52623.38;5032468;28;20016;-72
2024/01/09 06:31:47;;;;;;;;;;;;;;;-144.99;100.00;52621.34;5030360;28;19925;-67
2024/01/09 06:34:14;;;;;;;;;;;;;;;-144.99;100.00;52613.19;4337731;28;10000880;-68
2024/01/09 06:36:40;;;;;;;;;;;;;;;-144.99;100.00;52639.69;5020609;28;19933;-68
2024/01/09 06:39:07;;;;;;;;;;;;;;;-144.99;100.00;52647.84;5029183;28;19995;-68
2024/01/09 06:41:33;;;;;;;;;;;;;;;-144.99;100.00;52651.94;5030356;28;19933;-68
2024/01/09 06:44:00;;;;;;;;;;;;;;;-144.99;100.00;52676.38;5024014;28;19965;-67
2024/01/09 06:46:26;;;;;;;;;;;;;;;-144.99;100.00;52619.31;5028864;28;20008;-66
2024/01/09 06:48:54;;;;;;;;;;;;;;;-144.99;100.00;52631.53;5022731;28;20062;-66
2024/01/09 06:51:20;;;;;;;;;;;;;;;-144.99;100.00;52656.00;5028169;28;20023;-66
2024/01/09 06:53:47;;;;;;;;;;;;;;;-144.99;100.00;52647.84;5019568;28;20328;-67
2024/01/09 06:56:13;;;;;;;;;;;;;;;-144.99;100.00;52660.09;5035043;28;19932;-67
2024/01/09 06:58:40;;;;;;;;;;;;;;;-144.99;100.00;52639.69;5028873;28;20024;-67
2024/01/09 07:01:06;;;;;;;;;;;;;;;-144.99;100.00;52651.94;5025045;28;19933;-67
2024/01/09 07:03:32;;;;;;;;;;;;;;;-144.99;100.00;52635.63;5026684;28;19973;-67
2024/01/09 07:06:00;;;;;;;;;;;;;;;-144.99;100.00;52611.16;5027793;28;20425;-68
2024/01/09 07:08:27;;;;;;;;;;;;;;;-144.99;100.00;52680.47;5027917;28;19933;-67
2024/01/09 07:10:54;;;;;;;;;;;;;;;-144.99;100.00;52656.00;5022372;28;19969;-66
2024/01/09 07:13:20;;;;;;;;;;;;;;;-144.99;100.00;52627.47;5028191;28;20562;-67
2024/01/09 07:15:47;;;;;;;;;;;;;;;-144.99;100.00;52664.16;5027458;28;20026;-67
2024/01/09 07:18:13;;;;;;;;;;;;;;;-144.99;100.00;52619.31;5027717;28;19990;-67
2024/01/09 07:20:40;;;;;;;;;;;;;;;-144.99;100.00;52635.63;5024061;28;20288;-67
2024/01/09 07:23:07;;;;;;;;;;;;;;;-144.99;100.00;52633.59;5026308;28;20366;-66
2024/01/09 07:25:34;;;;;;;;;;;;;;;-144.99;100.00;52688.63;5026409;28;19929;-67
2024/01/09 07:28:00;;;;;;;;;;;;;;;-144.99;100.00;52656.00;5025284;28;19975;-68
2024/01/09 07:30:27;;;;;;;;;;;;;;;-144.99;100.00;52623.38;5021782;28;20016;-67
2024/01/09 07:32:54;;;;;;;;;;;;;;;-144.99;100.00;52615.25;5025202;28;19956;-68
2024/01/09 07:35:20;;;;;;;;;;;;;;;-144.99;100.00;52623.38;5026457;28;20360;-69
2024/01/09 07:37:47;;;;;;;;;;;;;;;-144.99;100.00;52627.47;5027647;28;20024;-67
2024/01/09 07:40:15;;;;;;;;;;;;;;;-144.99;100.00;52623.38;5026983;28;19929;-67
2024/01/09 07:42:41;;;;;;;;;;;;;;;-144.99;100.00;52627.47;5024354;28;20000;-67
2024/01/09 07:45:11;;;;;;;;;;;;;;;-144.99;100.00;52623.38;5026353;28;20472;-66
2024/01/09 07:47:37;;;;;;;;;;;;;;;-144.99;100.00;52645.81;5026679;28;20157;-67
2024/01/09 07:50:04;;;;;;;;;;;;;;;-144.99;100.00;52619.31;5036769;28;20022;-67
2024/01/09 07:52:31;;;;;;;;;;;;;;;-144.99;100.00;52639.69;5024653;28;20421;-67
2024/01/09 07:54:57;;;;;;;;;;;;;;;-144.99;100.00;52680.47;5029489;28;20035;-68
2024/01/09 07:57:25;;;;;;;;;;;;;;;-144.99;100.00;52607.09;4686688;28;9999876;-67
2024/01/09 07:59:51;;;;;;;;;;;;;;;-144.99;100.00;52627.47;5032649;28;20023;-67
2024/01/09 08:02:18;;;;;;;;;;;;;;;-144.99;100.00;52623.38;5027372;28;20027;-67
2024/01/09 08:04:44;;;;;;;;;;;;;;;-144.99;100.00;52615.25;5027754;28;19968;-67
2024/01/09 08:07:11;;;;;;;;;;;;;;;-144.99;100.00;52629.50;5029641;28;19962;-68
2024/01/09 08:09:37;;;;;;;;;;;;;;;-144.99;100.00;52627.47;5022141;28;19980;-67
2024/01/09 08:12:04;;;;;;;;;;;;;;;-144.99;100.00;52619.31;5028982;28;19983;-68
2024/01/09 08:14:32;;;;;;;;;;;;;;;-144.99;100.00;52621.34;5028642;28;19929;-66
2024/01/09 08:16:59;;;;;;;;;;;;;;;-144.99;100.00;52645.81;5025543;28;19929;-66
2024/01/09 08:19:25;;;;;;;;;;;;;;;-144.99;100.00;52617.28;5025975;28;20041;-68
2024/01/09 08:21:52;;;;;;;;;;;;;;;-144.99;100.00;52617.28;5032165;28;20422;-67
2024/01/09 08:24:19;;;;;;;;;;;;;;;-144.99;100.00;52623.38;5029614;28;19960;-67
2024/01/09 08:26:47;;;;;;;;;;;;;;;-144.99;100.00;52627.47;5032453;28;20351;-68
2024/01/09 08:29:14;;;;;;;;;;;;;;;-144.99;100.00;52590.78;5029744;28;19936;-68
2024/01/09 08:31:45;;;;;;;;;;;;;;;-144.99;100.00;52619.31;5029594;28;19941;-68
2024/01/09 08:34:11;;;;;;;;;;;;;;;-144.99;100.00;52647.84;5030702;28;19929;-68
2024/01/09 08:36:38;;;;;;;;;;;;;;;-144.99;100.00;52603.00;5026350;28;20353;-67
2024/01/09 08:39:04;;;;;;;;;;;;;;;-144.99;100.00;52623.38;5020966;28;19951;-67
2024/01/09 08:41:31;;;;;;;;;;;;;;;-144.99;100.00;52639.69;5033651;28;20047;-68
2024/01/09 08:43:57;;;;;;;;;;;;;;;-144.99;100.00;52598.94;5028062;28;19933;-68
2024/01/09 08:46:23;;;;;;;;;;;;;;;-144.99;100.00;52607.09;5030965;28;20173;-69
2024/01/09 08:48:51;;;;;;;;;;;;;;;-144.99;100.00;52598.94;5033402;28;20047;-68
2024/01/09 08:51:18;;;;;;;;;;;;;;;-144.99;100.00;52633.59;5025847;28;19953;-68
2024/01/09 08:53:44;;;;;;;;;;;;;;;-144.99;100.00;52586.69;5029066;28;19929;-67
2024/01/09 08:56:11;;;;;;;;;;;;;;;-144.99;100.00;52598.94;5033002;28;19944;-68
2024/01/09 08:58:37;;;;;;;;;;;;;;;-144.99;100.00;52570.38;5030871;28;19929;-69
2024/01/09 09:01:04;;;;;;;;;;;;;;;-144.99;100.00;52605.03;5027038;28;19990;-67
2024/01/09 09:03:30;;;;;;;;;;;;;;;-144.99;100.00;52615.25;5029247;28;19925;-67
2024/01/09 09:05:58;;;;;;;;;;;;;;;-144.99;100.00;52586.69;5032355;28;19929;-68
2024/01/09 09:08:25;;;;;;;;;;;;;;;-144.99;100.00;52615.25;5030271;28;20019;-67
2024/01/09 09:10:51;;;;;;;;;;;;;;;-144.99;100.00;52590.78;5017326;28;19932;-68
2024/01/09 09:13:18;;;;;;;;;;;;;;;-144.99;100.00;52586.69;5029014;28;20019;-68
2024/01/09 09:15:44;;;;;;;;;;;;;;;-144.99;100.00;52568.34;5030258;28;20351;-68
2024/01/09 09:18:11;;;;;;;;;;;;;;;-144.99;100.00;52562.25;5028428;28;20019;-68
2024/01/09 09:20:37;;;;;;;;;;;;;;;-144.99;100.00;52590.78;5032742;28;19967;-67
2024/01/09 09:23:06;;;;;;;;;;;;;;;-144.99;100.00;52570.38;5023458;28;19960;-69
2024/01/09 09:25:32;;;;;;;;;;;;;;;-144.99;100.00;52611.16;5034575;28;19929;-68
2024/01/09 09:27:58;;;;;;;;;;;;;;;-144.99;100.00;52574.47;5025922;28;19975;-68
2024/01/09 09:30:26;;;;;;;;;;;;;;;-144.99;100.00;52550.00;5029119;28;19983;-69
2024/01/09 09:32:54;;;;;;;;;;;;;;;-144.99;100.00;52566.31;5023671;28;19933;-69
2024/01/09 09:35:21;;;;;;;;;;;;;;;-144.99;100.00;52554.09;5024357;28;19929;-69
2024/01/09 09:37:47;;;;;;;;;;;;;;;-144.99;97.20;52594.84;5029532;28;19977;-69
2024/01/09 09:40:15;;;;;;;;;;;;;;;-144.99;95.79;52578.53;5032390;28;20412;-68
2024/01/09 09:42:43;;;;;;;;;;;;;;;-144.99;92.92;52547.97;5021469;28;20405;-69
2024/01/09 09:45:10;;;;;;;;;;;;;;;-144.99;91.05;52603.00;5034599;28;20254;-68
2024/01/09 09:47:38;;;;;;;;;;;;;;;-144.99;88.02;52558.16;5026873;28;20368;-67
2024/01/09 09:50:05;;;;;;;;;;;;;;;-144.99;85.26;52566.31;5020599;28;20497;-69
2024/01/09 09:52:34;;;;;;;;;;;;;;;-144.99;80.61;52533.69;5026775;28;19981;-68
2024/01/09 09:55:01;;;;;;;;;;;;;;;-144.99;78.66;52543.91;5028984;28;20015;-68
2024/01/09 09:57:29;;;;;;;;;;;;;;;-144.99;77.32;52541.84;5023920;28;20465;-68
2024/01/09 09:59:55;;;;;;;;;;;;;;;-144.99;75.23;52511.28;5030268;28;19928;-68
2024/01/09 10:02:25;;;;;;;;;;;;;;;-144.99;72.53;52507.19;5024346;28;20029;-70
2024/01/09 10:04:52;;;;;;;;;;;;;;;-144.99;71.19;52494.97;5024777;28;20042;-69
2024/01/09 10:07:20;;;;;;;;;;;;;;;-144.99;69.30;52505.16;5025743;28;20291;-69
2024/01/09 10:09:51;;;;;;;;;;;;;;;-144.99;70.69;52525.56;5025651;28;20505;-69
2024/01/09 10:12:19;;;;;;;;;;;;;;;-144.99;70.19;52521.47;5030162;28;19936;-68
2024/01/09 10:15:07;;;;;;;;;;;;;;;-144.99;69.81;52505.16;5027826;28;20371;-69
2024/01/09 10:17:33;;;;;;;;;;;;;;;-144.99;69.16;52484.78;5021973;28;19929;-71
2024/01/09 10:20:00;;;;;;;;;;;;;;;-144.99;68.48;52456.25;5025094;28;19984;-69
2024/01/09 10:22:29;;;;;;;;;;;;;;;-144.99;67.82;52478.66;5023444;28;20477;-70
2024/01/09 10:24:56;;;;;;;;;;;;;;;-144.99;65.48;52452.16;5026179;28;20373;-70
2024/01/09 10:27:23;;;;;;;;;;;;;;;-144.99;66.02;52476.63;5030526;28;19929;-71
2024/01/09 10:29:49;;;;;;;;;;;;;;;-144.99;66.12;52415.47;5025933;28;20018;-71
2024/01/09 10:32:18;;;;;;;;;;;;;;;-144.99;66.09;52431.78;5028960;28;20295;-71
2024/01/09 10:34:45;;;;;;;;;;;;;;;-144.99;63.93;52407.31;5029017;28;20047;-71
2024/01/09 10:37:13;;;;;;;;;;;;;;;-144.99;63.70;52395.09;5029514;28;20012;-71
2024/01/09 10:39:40;;;;;;;;;;;;;;;-144.99;63.13;52350.25;5026316;28;20422;-71
2024/01/09 10:42:07;;;;;;;;;;;;;;;-144.99;62.03;52368.59;5028546;28;19960;-71
2024/01/09 10:44:34;;;;;;;;;;;;;;;-144.99;60.80;52329.88;5029609;28;19960;-71
2024/01/09 10:47:00;;;;;;;;;;;;;;;-144.99;60.49;52354.34;5030603;28;20398;-71
2024/01/09 10:49:29;;;;;;;;;;;;;;;-144.99;60.21;52362.50;5038089;28;20737;-72
2024/01/09 10:51:56;;;;;;;;;;;;;;;-144.99;60.07;52346.19;5032047;28;19933;-72
2024/01/09 10:54:23;;;;;;;;;;;;;;;-144.99;59.74;52352.28;5027558;28;20142;-72
2024/01/09 10:56:50;;;;;;;;;;;;;;;-144.99;59.78;52378.78;5037128;28;19986;-71
2024/01/09 10:59:17;;;;;;;;;;;;;;;-144.99;59.71;52338.03;5028440;28;20476;-72
2024/01/09 11:01:43;;;;;;;;;;;;;;;-144.99;58.91;52295.22;5026103;28;19929;-72
2024/01/09 11:04:10;;;;;;;;;;;;;;;-144.99;58.56;52297.25;5028346;28;20033;-72
2024/01/09 11:06:40;;;;;;;;;;;;;;;-144.99;58.32;52325.81;5028853;28;20099;-72
2024/01/09 11:09:08;;;;;;;;;;;;;;;-144.99;58.20;52317.66;5021748;28;20511;-72
2024/01/09 11:11:37;;;;;;;;;;;;;;;-144.99;57.92;52268.72;5022392;28;19979;-72
2024/01/09 11:14:07;;;;;;;;;;;;;;;-144.99;57.69;52280.97;5023102;28;20020;-73
2024/01/09 11:16:34;;;;;;;;;;;;;;;-144.99;57.35;52297.25;5028142;28;19936;-72
2024/01/09 11:19:02;;;;;;;;;;;;;;;-144.99;56.87;52272.81;5028149;28;19956;-73
2024/01/09 11:21:28;;;;;;;;;;;;;;;-144.99;56.88;52297.25;5028577;28;19929;-72
2024/01/09 11:23:57;;;;;;;;;;;;;;;-144.99;57.13;52319.69;5025439;28;19964;-73
2024/01/09 11:26:26;;;;;;;;;;;;;;;-144.99;56.88;52260.56;5029364;28;19929;-73
2024/01/09 11:28:52;;;;;;;;;;;;;;;-144.99;56.86;52276.88;5030103;28;20456;-73
2024/01/09 11:31:20;;;;;;;;;;;;;;;-144.99;56.74;52260.56;5028487;28;19968;-73
2024/01/09 11:33:48;;;;;;;;;;;;;;;-144.99;56.84;52252.44;5024136;28;19925;-71
2024/01/09 11:36:18;;;;;;;;;;;;;;;-144.99;56.45;52297.25;5026982;28;19929;-72
2024/01/09 11:38:45;;;;;;;;;;;;;;;-144.99;56.34;52256.50;5026557;28;20041;-71
2024/01/09 11:41:13;;;;;;;;;;;;;;;-144.99;56.50;52399.19;5027892;28;19960;-73
2024/01/09 11:43:57;;;;;;;;;;;;;;;-144.99;56.57;52280.97;5027002;28;19934;-73
2024/01/09 11:46:23;;;;;;;;;;;;;;;-144.99;56.70;52252.44;5028072;28;19980;-73
2024/01/09 11:48:50;;;;;;;;;;;;;;;-144.99;56.63;52276.88;5027902;28;19960;-72
2024/01/09 11:51:17;;;;;;;;;;;;;;;-144.99;56.58;52256.50;5033625;28;19936;-72
2024/01/09 11:53:44;;;;;;;;;;;;;;;-144.99;56.43;52289.13;5029392;28;20396;-72
2024/01/09 11:56:13;;;;;;;;;;;;;;;-144.99;56.49;52266.69;5028994;28;20349;-72
2024/01/09 11:58:42;;;;;;;;;;;;;;;-144.99;56.15;52305.41;5032495;28;19975;-72
2024/01/09 12:01:09;;;;;;;;;;;;;;;-144.99;55.96;52232.03;5027540;28;19975;-72
2024/01/09 12:03:35;;;;;;;;;;;;;;;-144.99;55.88;52293.19;5031385;28;19979;-72
2024/01/09 12:06:04;;;;;;;;;;;;;;;-144.99;55.59;52256.50;5028391;28;20005;-72
2024/01/09 12:08:31;;;;;;;;;;;;;;;-144.99;55.41;52219.81;5032119;28;19925;-72
2024/01/09 12:10:57;;;;;;;;;;;;;;;-144.99;55.53;52252.44;5032321;28;20060;-72
2024/01/09 12:13:24;;;;;;;;;;;;;;;-144.99;55.29;52268.72;5026949;28;20035;-72
2024/01/09 12:15:52;;;;;;;;;;;;;;;-144.99;55.29;52238.16;5029706;28;19933;-71